sensor_id;sensor_type;location;lat;lon;timestamp;temperature;humidity
48589;DHT22;34369;51.174;6.738;2023-03-14T00:02:19;10.10;63.20
48589;DHT22;34369;51.174;6.738;2023-03-14T00:04:54;10.00;63.20
48589;DHT22;34369;51.174;6.738;2023-03-14T00:07:26;10.00;63.30
48589;DHT22;34369;51.174;6.738;2023-03-14T00:10:03;10.00;63.30
48589;DHT22;34369;51.174;6.738;2023-03-14T00:12:36;10.00;63.30
48589;DHT22;34369;51.174;6.738;2023-03-14T00:15:09;10.00;63.20
48589;DHT22;34369;51.174;6.738;2023-03-14T00:17:44;10.00;63.30
48589;DHT22;34369;51.174;6.738;2023-03-14T00:20:16;10.00;63.40
48589;DHT22;34369;51.174;6.738;2023-03-14T00:22:48;10.00;63.40
48589;DHT22;34369;51.174;6.738;2023-03-14T00:25:20;10.00;63.60
48589;DHT22;34369;51.174;6.738;2023-03-14T00:27:52;10.00;63.70
48589;DHT22;34369;51.174;6.738;2023-03-14T00:30:24;10.00;63.90
48589;DHT22;34369;51.174;6.738;2023-03-14T00:32:57;10.20;64.00
48589;DHT22;34369;51.174;6.738;2023-03-14T00:35:29;10.20;64.70
48589;DHT22;34369;51.174;6.738;2023-03-14T00:38:01;10.30;65.30
48589;DHT22;34369;51.174;6.738;2023-03-14T00:40:33;10.40;65.50
48589;DHT22;34369;51.174;6.738;2023-03-14T00:43:05;10.40;65.70
48589;DHT22;34369;51.174;6.738;2023-03-14T00:45:37;10.50;65.60
48589;DHT22;34369;51.174;6.738;2023-03-14T00:48:11;10.50;65.50
48589;DHT22;34369;51.174;6.738;2023-03-14T00:50:44;10.50;65.50
48589;DHT22;34369;51.174;6.738;2023-03-14T00:53:16;10.40;65.40
48589;DHT22;34369;51.174;6.738;2023-03-14T00:55:49;10.40;65.30
48589;DHT22;34369;51.174;6.738;2023-03-14T00:58:21;10.40;65.30
48589;DHT22;34369;51.174;6.738;2023-03-14T01:00:54;10.30;65.20
48589;DHT22;34369;51.174;6.738;2023-03-14T01:03:28;10.30;65.10
48589;DHT22;34369;51.174;6.738;2023-03-14T01:06:09;10.20;65.30
48589;DHT22;34369;51.174;6.738;2023-03-14T01:08:43;10.10;65.60
48589;DHT22;34369;51.174;6.738;2023-03-14T01:11:19;10.00;65.30
48589;DHT22;34369;51.174;6.738;2023-03-14T01:13:53;10.00;65.50
48589;DHT22;34369;51.174;6.738;2023-03-14T01:16:28;10.00;65.60
48589;DHT22;34369;51.174;6.738;2023-03-14T01:19:02;9.80;65.70
48589;DHT22;34369;51.174;6.738;2023-03-14T01:21:35;9.80;65.90
48589;DHT22;34369;51.174;6.738;2023-03-14T01:24:10;9.70;66.00
48589;DHT22;34369;51.174;6.738;2023-03-14T01:26:43;9.60;66.20
48589;DHT22;34369;51.174;6.738;2023-03-14T01:29:18;9.60;66.30
48589;DHT22;34369;51.174;6.738;2023-03-14T01:31:50;9.50;66.40
48589;DHT22;34369;51.174;6.738;2023-03-14T01:34:24;9.50;66.70
48589;DHT22;34369;51.174;6.738;2023-03-14T01:36:56;9.50;66.90
48589;DHT22;34369;51.174;6.738;2023-03-14T01:39:28;9.40;67.00
48589;DHT22;34369;51.174;6.738;2023-03-14T01:42:00;9.40;67.10
48589;DHT22;34369;51.174;6.738;2023-03-14T01:44:48;9.40;67.20
48589;DHT22;34369;51.174;6.738;2023-03-14T01:47:22;9.40;67.60
48589;DHT22;34369;51.174;6.738;2023-03-14T01:50:00;9.40;67.30
48589;DHT22;34369;51.174;6.738;2023-03-14T01:52:36;9.40;67.50
48589;DHT22;34369;51.174;6.738;2023-03-14T01:55:14;9.40;67.50
48589;DHT22;34369;51.174;6.738;2023-03-14T01:57:50;9.40;67.50
48589;DHT22;34369;51.174;6.738;2023-03-14T02:00:24;9.40;67.40
48589;DHT22;34369;51.174;6.738;2023-03-14T02:03:02;9.40;67.40
48589;DHT22;34369;51.174;6.738;2023-03-14T02:05:40;9.40;67.50
48589;DHT22;34369;51.174;6.738;2023-03-14T02:08:14;9.40;67.50
48589;DHT22;34369;51.174;6.738;2023-03-14T02:10:48;9.40;67.70
48589;DHT22;34369;51.174;6.738;2023-03-14T02:13:22;9.40;67.20
48589;DHT22;34369;51.174;6.738;2023-03-14T02:15:54;9.40;67.40
48589;DHT22;34369;51.174;6.738;2023-03-14T02:18:26;9.40;67.40
48589;DHT22;34369;51.174;6.738;2023-03-14T02:21:03;9.40;67.30
48589;DHT22;34369;51.174;6.738;2023-03-14T02:23:43;9.40;67.30
48589;DHT22;34369;51.174;6.738;2023-03-14T02:26:23;9.40;67.20
48589;DHT22;34369;51.174;6.738;2023-03-14T02:28:58;9.40;67.10
48589;DHT22;34369;51.174;6.738;2023-03-14T02:31:30;9.40;67.00
48589;DHT22;34369;51.174;6.738;2023-03-14T02:34:02;9.40;67.10
48589;DHT22;34369;51.174;6.738;2023-03-14T02:36:35;9.40;67.20
48589;DHT22;34369;51.174;6.738;2023-03-14T02:39:11;9.40;67.10
48589;DHT22;34369;51.174;6.738;2023-03-14T02:41:46;9.40;67.20
48589;DHT22;34369;51.174;6.738;2023-03-14T02:44:21;9.40;67.10
48589;DHT22;34369;51.174;6.738;2023-03-14T02:46:53;9.40;67.20
48589;DHT22;34369;51.174;6.738;2023-03-14T02:49:26;9.50;67.20
48589;DHT22;34369;51.174;6.738;2023-03-14T02:51:59;9.50;67.20
48589;DHT22;34369;51.174;6.738;2023-03-14T02:54:31;9.50;67.20
48589;DHT22;34369;51.174;6.738;2023-03-14T02:57:03;9.50;67.10
48589;DHT22;34369;51.174;6.738;2023-03-14T02:59:37;9.50;67.10
48589;DHT22;34369;51.174;6.738;2023-03-14T03:02:09;9.50;67.10
48589;DHT22;34369;51.174;6.738;2023-03-14T03:04:41;9.50;67.10
48589;DHT22;34369;51.174;6.738;2023-03-14T03:07:13;9.50;67.10
48589;DHT22;34369;51.174;6.738;2023-03-14T03:09:45;9.50;67.20
48589;DHT22;34369;51.174;6.738;2023-03-14T03:12:17;9.50;67.20
48589;DHT22;34369;51.174;6.738;2023-03-14T03:14:50;9.60;67.20
48589;DHT22;34369;51.174;6.738;2023-03-14T03:17:22;9.60;67.30
48589;DHT22;34369;51.174;6.738;2023-03-14T03:19:54;9.60;67.30
48589;DHT22;34369;51.174;6.738;2023-03-14T03:22:26;9.60;67.40
48589;DHT22;34369;51.174;6.738;2023-03-14T03:24:59;9.60;67.40
48589;DHT22;34369;51.174;6.738;2023-03-14T03:27:31;9.60;67.40
48589;DHT22;34369;51.174;6.738;2023-03-14T03:30:06;9.50;67.50
48589;DHT22;34369;51.174;6.738;2023-03-14T03:32:39;9.50;67.60
48589;DHT22;34369;51.174;6.738;2023-03-14T03:35:12;9.50;67.70
48589;DHT22;34369;51.174;6.738;2023-03-14T03:37:44;9.50;67.90
48589;DHT22;34369;51.174;6.738;2023-03-14T03:40:16;9.50;68.20
48589;DHT22;34369;51.174;6.738;2023-03-14T03:42:48;9.50;68.40
48589;DHT22;34369;51.174;6.738;2023-03-14T03:45:22;9.50;68.70
48589;DHT22;34369;51.174;6.738;2023-03-14T03:47:54;9.50;68.90
48589;DHT22;34369;51.174;6.738;2023-03-14T03:50:26;9.40;69.00
48589;DHT22;34369;51.174;6.738;2023-03-14T03:52:59;9.40;69.20
48589;DHT22;34369;51.174;6.738;2023-03-14T03:55:31;9.40;69.30
48589;DHT22;34369;51.174;6.738;2023-03-14T03:58:04;9.40;69.50
48589;DHT22;34369;51.174;6.738;2023-03-14T04:00:37;9.40;69.70
48589;DHT22;34369;51.174;6.738;2023-03-14T04:03:10;9.40;69.90
48589;DHT22;34369;51.174;6.738;2023-03-14T04:05:42;9.40;70.00
48589;DHT22;34369;51.174;6.738;2023-03-14T04:08:13;9.40;70.10
48589;DHT22;34369;51.174;6.738;2023-03-14T04:10:45;9.40;70.20
48589;DHT22;34369;51.174;6.738;2023-03-14T04:13:18;9.40;70.20
48589;DHT22;34369;51.174;6.738;2023-03-14T04:15:51;9.40;70.20
48589;DHT22;34369;51.174;6.738;2023-03-14T04:18:24;9.40;70.40
48589;DHT22;34369;51.174;6.738;2023-03-14T04:20:57;9.40;70.40
48589;DHT22;34369;51.174;6.738;2023-03-14T04:23:32;9.40;70.50
48589;DHT22;34369;51.174;6.738;2023-03-14T04:26:05;9.40;70.50
48589;DHT22;34369;51.174;6.738;2023-03-14T04:28:37;9.40;70.50
48589;DHT22;34369;51.174;6.738;2023-03-14T04:31:12;9.40;70.50
48589;DHT22;34369;51.174;6.738;2023-03-14T04:33:45;9.40;70.40
48589;DHT22;34369;51.174;6.738;2023-03-14T04:36:17;9.30;70.20
48589;DHT22;34369;51.174;6.738;2023-03-14T04:38:49;9.30;70.20
48589;DHT22;34369;51.174;6.738;2023-03-14T04:41:21;9.30;70.20
48589;DHT22;34369;51.174;6.738;2023-03-14T04:43:53;9.30;70.20
48589;DHT22;34369;51.174;6.738;2023-03-14T04:46:26;9.20;70.30
48589;DHT22;34369;51.174;6.738;2023-03-14T04:48:59;9.20;70.30
48589;DHT22;34369;51.174;6.738;2023-03-14T04:51:30;9.20;70.20
48589;DHT22;34369;51.174;6.738;2023-03-14T04:54:02;9.20;70.30
48589;DHT22;34369;51.174;6.738;2023-03-14T04:56:35;9.20;70.40
48589;DHT22;34369;51.174;6.738;2023-03-14T04:59:07;9.20;70.40
48589;DHT22;34369;51.174;6.738;2023-03-14T05:01:41;9.20;70.40
48589;DHT22;34369;51.174;6.738;2023-03-14T05:04:13;9.20;70.30
48589;DHT22;34369;51.174;6.738;2023-03-14T05:06:44;9.20;70.40
48589;DHT22;34369;51.174;6.738;2023-03-14T05:09:16;9.20;70.40
48589;DHT22;34369;51.174;6.738;2023-03-14T05:11:48;9.20;70.30
48589;DHT22;34369;51.174;6.738;2023-03-14T05:14:23;9.20;70.30
48589;DHT22;34369;51.174;6.738;2023-03-14T05:16:57;9.20;70.40
48589;DHT22;34369;51.174;6.738;2023-03-14T05:19:29;9.20;70.30
48589;DHT22;34369;51.174;6.738;2023-03-14T05:22:01;9.20;70.10
48589;DHT22;34369;51.174;6.738;2023-03-14T05:24:33;9.20;70.00
48589;DHT22;34369;51.174;6.738;2023-03-14T05:27:05;9.20;70.00
48589;DHT22;34369;51.174;6.738;2023-03-14T05:29:37;9.20;70.00
48589;DHT22;34369;51.174;6.738;2023-03-14T05:32:10;9.30;70.00
48589;DHT22;34369;51.174;6.738;2023-03-14T05:34:43;9.30;70.00
48589;DHT22;34369;51.174;6.738;2023-03-14T05:37:17;9.30;69.90
48589;DHT22;34369;51.174;6.738;2023-03-14T05:39:50;9.30;69.90
48589;DHT22;34369;51.174;6.738;2023-03-14T05:42:22;9.30;69.80
48589;DHT22;34369;51.174;6.738;2023-03-14T05:44:54;9.40;69.70
48589;DHT22;34369;51.174;6.738;2023-03-14T05:47:35;9.30;69.70
48589;DHT22;34369;51.174;6.738;2023-03-14T05:50:11;9.40;69.80
48589;DHT22;34369;51.174;6.738;2023-03-14T05:52:47;9.40;69.70
48589;DHT22;34369;51.174;6.738;2023-03-14T05:55:20;9.40;69.70
48589;DHT22;34369;51.174;6.738;2023-03-14T05:57:53;9.40;69.60
48589;DHT22;34369;51.174;6.738;2023-03-14T06:00:26;9.40;69.50
48589;DHT22;34369;51.174;6.738;2023-03-14T06:02:59;9.40;69.50
48589;DHT22;34369;51.174;6.738;2023-03-14T06:05:33;9.40;69.50
48589;DHT22;34369;51.174;6.738;2023-03-14T06:08:06;9.40;69.50
48589;DHT22;34369;51.174;6.738;2023-03-14T06:10:39;9.40;69.50
48589;DHT22;34369;51.174;6.738;2023-03-14T06:13:12;9.40;69.40
48589;DHT22;34369;51.174;6.738;2023-03-14T06:15:45;9.40;69.50
48589;DHT22;34369;51.174;6.738;2023-03-14T06:18:20;9.40;69.40
48589;DHT22;34369;51.174;6.738;2023-03-14T06:20:59;9.40;69.40
48589;DHT22;34369;51.174;6.738;2023-03-14T06:23:32;9.40;69.40
48589;DHT22;34369;51.174;6.738;2023-03-14T06:26:05;9.40;69.30
48589;DHT22;34369;51.174;6.738;2023-03-14T06:28:37;9.40;69.20
48589;DHT22;34369;51.174;6.738;2023-03-14T06:31:10;9.50;69.20
48589;DHT22;34369;51.174;6.738;2023-03-14T06:33:43;9.50;69.20
48589;DHT22;34369;51.174;6.738;2023-03-14T06:36:15;9.50;69.20
48589;DHT22;34369;51.174;6.738;2023-03-14T06:38:50;9.50;69.20
48589;DHT22;34369;51.174;6.738;2023-03-14T06:41:23;9.60;69.10
48589;DHT22;34369;51.174;6.738;2023-03-14T06:43:57;9.60;69.10
48589;DHT22;34369;51.174;6.738;2023-03-14T06:46:32;9.60;69.00
48589;DHT22;34369;51.174;6.738;2023-03-14T06:49:09;9.60;69.00
48589;DHT22;34369;51.174;6.738;2023-03-14T06:51:42;9.70;69.10
48589;DHT22;34369;51.174;6.738;2023-03-14T06:54:15;9.70;69.00
48589;DHT22;34369;51.174;6.738;2023-03-14T06:56:50;9.70;68.90
48589;DHT22;34369;51.174;6.738;2023-03-14T06:59:22;9.80;68.80
48589;DHT22;34369;51.174;6.738;2023-03-14T07:01:55;9.80;68.80
48589;DHT22;34369;51.174;6.738;2023-03-14T07:04:29;9.90;68.70
48589;DHT22;34369;51.174;6.738;2023-03-14T07:07:04;9.90;68.70
48589;DHT22;34369;51.174;6.738;2023-03-14T07:09:37;9.90;68.70
48589;DHT22;34369;51.174;6.738;2023-03-14T07:12:09;10.00;68.70
48589;DHT22;34369;51.174;6.738;2023-03-14T07:14:41;10.00;68.70
48589;DHT22;34369;51.174;6.738;2023-03-14T07:17:14;10.00;68.70
48589;DHT22;34369;51.174;6.738;2023-03-14T07:19:48;10.00;68.80
48589;DHT22;34369;51.174;6.738;2023-03-14T07:22:20;10.00;68.80
48589;DHT22;34369;51.174;6.738;2023-03-14T07:24:52;10.00;68.80
48589;DHT22;34369;51.174;6.738;2023-03-14T07:27:24;10.00;68.70
48589;DHT22;34369;51.174;6.738;2023-03-14T07:29:57;10.00;68.90
48589;DHT22;34369;51.174;6.738;2023-03-14T07:32:29;10.00;69.00
48589;DHT22;34369;51.174;6.738;2023-03-14T07:35:04;10.10;69.10
48589;DHT22;34369;51.174;6.738;2023-03-14T07:37:39;10.20;69.00
48589;DHT22;34369;51.174;6.738;2023-03-14T07:40:12;10.20;69.00
48589;DHT22;34369;51.174;6.738;2023-03-14T07:42:45;10.30;68.90
48589;DHT22;34369;51.174;6.738;2023-03-14T07:45:20;10.30;68.90
48589;DHT22;34369;51.174;6.738;2023-03-14T07:47:52;10.40;68.80
48589;DHT22;34369;51.174;6.738;2023-03-14T07:50:29;10.40;68.80
48589;DHT22;34369;51.174;6.738;2023-03-14T07:53:02;10.40;68.80
48589;DHT22;34369;51.174;6.738;2023-03-14T07:55:34;10.40;68.80
48589;DHT22;34369;51.174;6.738;2023-03-14T07:58:07;10.50;69.10
48589;DHT22;34369;51.174;6.738;2023-03-14T08:00:43;10.50;69.10
48589;DHT22;34369;51.174;6.738;2023-03-14T08:03:15;10.50;69.30
48589;DHT22;34369;51.174;6.738;2023-03-14T08:05:50;10.60;69.40
48589;DHT22;34369;51.174;6.738;2023-03-14T08:08:23;10.60;69.20
48589;DHT22;34369;51.174;6.738;2023-03-14T08:10:58;10.70;69.00
48589;DHT22;34369;51.174;6.738;2023-03-14T08:13:35;10.80;68.80
48589;DHT22;34369;51.174;6.738;2023-03-14T08:16:09;10.80;68.60
48589;DHT22;34369;51.174;6.738;2023-03-14T08:18:42;10.90;68.40
48589;DHT22;34369;51.174;6.738;2023-03-14T08:21:16;11.00;68.30
48589;DHT22;34369;51.174;6.738;2023-03-14T08:23:48;11.00;68.20
48589;DHT22;34369;51.174;6.738;2023-03-14T08:26:20;11.00;68.00
48589;DHT22;34369;51.174;6.738;2023-03-14T08:28:52;11.00;68.00
48589;DHT22;34369;51.174;6.738;2023-03-14T08:31:24;11.00;67.90
48589;DHT22;34369;51.174;6.738;2023-03-14T08:33:58;11.10;67.80
48589;DHT22;34369;51.174;6.738;2023-03-14T08:36:35;11.10;67.70
48589;DHT22;34369;51.174;6.738;2023-03-14T08:39:10;11.10;67.70
48589;DHT22;34369;51.174;6.738;2023-03-14T08:41:45;11.10;67.80
48589;DHT22;34369;51.174;6.738;2023-03-14T08:44:17;11.10;67.60
48589;DHT22;34369;51.174;6.738;2023-03-14T08:46:49;11.20;67.60
48589;DHT22;34369;51.174;6.738;2023-03-14T08:49:21;11.20;67.60
48589;DHT22;34369;51.174;6.738;2023-03-14T08:51:55;11.20;67.60
48589;DHT22;34369;51.174;6.738;2023-03-14T08:54:27;11.20;67.60
48589;DHT22;34369;51.174;6.738;2023-03-14T08:56:59;11.20;67.60
48589;DHT22;34369;51.174;6.738;2023-03-14T08:59:31;11.20;67.70
48589;DHT22;34369;51.174;6.738;2023-03-14T09:02:03;11.10;67.90
48589;DHT22;34369;51.174;6.738;2023-03-14T09:04:35;11.10;68.00
48589;DHT22;34369;51.174;6.738;2023-03-14T09:07:09;11.10;68.00
48589;DHT22;34369;51.174;6.738;2023-03-14T09:09:42;11.10;68.40
48589;DHT22;34369;51.174;6.738;2023-03-14T09:12:15;11.10;68.30
48589;DHT22;34369;51.174;6.738;2023-03-14T09:14:47;11.00;68.10
48589;DHT22;34369;51.174;6.738;2023-03-14T09:17:19;11.00;68.00
48589;DHT22;34369;51.174;6.738;2023-03-14T09:32:48;11.00;67.90
48589;DHT22;34369;51.174;6.738;2023-03-14T09:35:34;10.40;64.90
48589;DHT22;34369;51.174;6.738;2023-03-14T09:38:16;10.30;64.80
48589;DHT22;34369;51.174;6.738;2023-03-14T09:40:57;10.30;64.40
48589;DHT22;34369;51.174;6.738;2023-03-14T09:44:02;10.20;64.20
48589;DHT22;34369;51.174;6.738;2023-03-14T09:46:55;10.00;64.40
48589;DHT22;34369;51.174;6.738;2023-03-14T09:49:40;10.00;64.60
48589;DHT22;34369;51.174;6.738;2023-03-14T09:52:16;9.80;64.80
48589;DHT22;34369;51.174;6.738;2023-03-14T09:55:09;9.70;65.00
48589;DHT22;34369;51.174;6.738;2023-03-14T09:57:56;9.60;65.10
48589;DHT22;34369;51.174;6.738;2023-03-14T10:00:41;9.40;65.40
48589;DHT22;34369;51.174;6.738;2023-03-14T10:03:25;9.40;65.50
48589;DHT22;34369;51.174;6.738;2023-03-14T10:06:11;9.20;65.60
48589;DHT22;34369;51.174;6.738;2023-03-14T10:08:46;9.20;65.90
48589;DHT22;34369;51.174;6.738;2023-03-14T10:11:20;9.10;65.70
48589;DHT22;34369;51.174;6.738;2023-03-14T10:14:10;9.00;65.70
48589;DHT22;34369;51.174;6.738;2023-03-14T10:17:06;8.90;65.40
48589;DHT22;34369;51.174;6.738;2023-03-14T10:19:52;8.90;65.60
48589;DHT22;34369;51.174;6.738;2023-03-14T10:22:30;8.80;66.10
48589;DHT22;34369;51.174;6.738;2023-03-14T10:25:05;8.70;66.60
48589;DHT22;34369;51.174;6.738;2023-03-14T10:27:40;8.60;66.80
48589;DHT22;34369;51.174;6.738;2023-03-14T10:30:30;8.60;67.00
48589;DHT22;34369;51.174;6.738;2023-03-14T10:33:11;8.60;67.30
48589;DHT22;34369;51.174;6.738;2023-03-14T10:36:00;8.60;67.10
48589;DHT22;34369;51.174;6.738;2023-03-14T10:38:37;8.60;67.20
48589;DHT22;34369;51.174;6.738;2023-03-14T10:44:58;8.60;67.40
48589;DHT22;34369;51.174;6.738;2023-03-14T10:47:34;8.50;67.20
48589;DHT22;34369;51.174;6.738;2023-03-14T10:50:34;8.50;67.20
48589;DHT22;34369;51.174;6.738;2023-03-14T10:53:16;8.50;67.80
48589;DHT22;34369;51.174;6.738;2023-03-14T10:59:20;8.40;68.20
48589;DHT22;34369;51.174;6.738;2023-03-14T11:01:58;8.30;68.10
48589;DHT22;34369;51.174;6.738;2023-03-14T11:04:55;8.30;68.00
48589;DHT22;34369;51.174;6.738;2023-03-14T11:07:41;8.20;68.40
48589;DHT22;34369;51.174;6.738;2023-03-14T11:10:30;8.20;68.30
48589;DHT22;34369;51.174;6.738;2023-03-14T11:13:17;8.10;68.50
48589;DHT22;34369;51.174;6.738;2023-03-14T11:16:24;8.10;68.10
48589;DHT22;34369;51.174;6.738;2023-03-14T11:19:28;8.00;68.20
48589;DHT22;34369;51.174;6.738;2023-03-14T11:22:31;8.00;67.90
48589;DHT22;34369;51.174;6.738;2023-03-14T11:25:24;7.90;67.90
48589;DHT22;34369;51.174;6.738;2023-03-14T11:28:14;7.90;67.80
48589;DHT22;34369;51.174;6.738;2023-03-14T11:30:55;7.80;68.00
48589;DHT22;34369;51.174;6.738;2023-03-14T11:33:36;7.70;68.20
48589;DHT22;34369;51.174;6.738;2023-03-14T11:36:37;7.70;68.20
48589;DHT22;34369;51.174;6.738;2023-03-14T11:39:40;7.70;68.00
48589;DHT22;34369;51.174;6.738;2023-03-14T11:42:29;7.70;67.60
48589;DHT22;34369;51.174;6.738;2023-03-14T11:45:16;7.60;67.50
48589;DHT22;34369;51.174;6.738;2023-03-14T11:48:19;7.60;67.00
48589;DHT22;34369;51.174;6.738;2023-03-14T11:51:01;7.50;66.70
48589;DHT22;34369;51.174;6.738;2023-03-14T11:53:57;7.50;66.80
48589;DHT22;34369;51.174;6.738;2023-03-14T11:56:59;7.40;67.10
48589;DHT22;34369;51.174;6.738;2023-03-14T11:59:44;7.30;67.00
48589;DHT22;34369;51.174;6.738;2023-03-14T12:02:43;7.30;67.10
48589;DHT22;34369;51.174;6.738;2023-03-14T12:05:58;7.30;67.00
48589;DHT22;34369;51.174;6.738;2023-03-14T12:08:47;7.30;67.00
48589;DHT22;34369;51.174;6.738;2023-03-14T12:11:32;7.30;67.00
48589;DHT22;34369;51.174;6.738;2023-03-14T12:14:22;7.30;67.30
48589;DHT22;34369;51.174;6.738;2023-03-14T12:16:58;7.30;67.50
48589;DHT22;34369;51.174;6.738;2023-03-14T12:20:01;7.30;66.90
48589;DHT22;34369;51.174;6.738;2023-03-14T12:22:43;7.40;65.80
48589;DHT22;34369;51.174;6.738;2023-03-14T12:25:20;7.30;65.70
48589;DHT22;34369;51.174;6.738;2023-03-14T12:28:18;7.30;65.60
48589;DHT22;34369;51.174;6.738;2023-03-14T12:30:54;7.30;65.40
48589;DHT22;34369;51.174;6.738;2023-03-14T12:33:31;7.30;65.50
48589;DHT22;34369;51.174;6.738;2023-03-14T12:39:39;7.30;64.80
48589;DHT22;34369;51.174;6.738;2023-03-14T12:42:24;7.30;65.00
48589;DHT22;34369;51.174;6.738;2023-03-14T12:45:25;7.30;64.80
48589;DHT22;34369;51.174;6.738;2023-03-14T12:48:09;7.30;64.70
48589;DHT22;34369;51.174;6.738;2023-03-14T12:50:45;7.30;65.20
48589;DHT22;34369;51.174;6.738;2023-03-14T12:53:42;7.30;65.60
48589;DHT22;34369;51.174;6.738;2023-03-14T12:57:10;7.50;66.10
48589;DHT22;34369;51.174;6.738;2023-03-14T12:59:51;7.50;65.00
48589;DHT22;34369;51.174;6.738;2023-03-14T13:02:25;7.60;64.80
48589;DHT22;34369;51.174;6.738;2023-03-14T13:05:11;7.70;64.60
48589;DHT22;34369;51.174;6.738;2023-03-14T13:08:06;7.70;64.60
48589;DHT22;34369;51.174;6.738;2023-03-14T13:10:49;7.70;64.10
48589;DHT22;34369;51.174;6.738;2023-03-14T13:13:27;7.70;63.90
48589;DHT22;34369;51.174;6.738;2023-03-14T13:16:01;7.70;63.30
48589;DHT22;34369;51.174;6.738;2023-03-14T13:18:39;7.70;63.30
48589;DHT22;34369;51.174;6.738;2023-03-14T13:21:15;7.60;63.20
48589;DHT22;34369;51.174;6.738;2023-03-14T13:23:58;7.60;62.80
48589;DHT22;34369;51.174;6.738;2023-03-14T13:26:39;7.50;62.60
48589;DHT22;34369;51.174;6.738;2023-03-14T13:29:19;7.40;62.90
48589;DHT22;34369;51.174;6.738;2023-03-14T13:32:26;7.30;63.20
48589;DHT22;34369;51.174;6.738;2023-03-14T13:35:01;7.30;62.80
48589;DHT22;34369;51.174;6.738;2023-03-14T13:37:39;7.30;63.20
48589;DHT22;34369;51.174;6.738;2023-03-14T13:40:25;7.30;63.50
48589;DHT22;34369;51.174;6.738;2023-03-14T13:43:09;7.30;63.80
48589;DHT22;34369;51.174;6.738;2023-03-14T13:45:53;7.50;65.40
48589;DHT22;34369;51.174;6.738;2023-03-14T13:48:29;7.70;66.00
48589;DHT22;34369;51.174;6.738;2023-03-14T13:51:06;8.00;65.00
48589;DHT22;34369;51.174;6.738;2023-03-14T13:53:46;8.30;64.80
48589;DHT22;34369;51.174;6.738;2023-03-14T13:56:22;8.60;63.60
48589;DHT22;34369;51.174;6.738;2023-03-14T13:58:57;8.90;62.50
48589;DHT22;34369;51.174;6.738;2023-03-14T14:01:32;9.00;61.60
48589;DHT22;34369;51.174;6.738;2023-03-14T14:04:07;9.20;60.50
48589;DHT22;34369;51.174;6.738;2023-03-14T14:06:45;9.20;59.80
48589;DHT22;34369;51.174;6.738;2023-03-14T14:09:22;9.20;59.10
48589;DHT22;34369;51.174;6.738;2023-03-14T14:11:58;9.20;59.20
48589;DHT22;34369;51.174;6.738;2023-03-14T14:14:35;9.10;59.00
48589;DHT22;34369;51.174;6.738;2023-03-14T14:17:14;9.00;58.90
48589;DHT22;34369;51.174;6.738;2023-03-14T14:19:53;9.00;58.20
48589;DHT22;34369;51.174;6.738;2023-03-14T14:22:31;8.90;56.90
48589;DHT22;34369;51.174;6.738;2023-03-14T14:25:12;8.80;56.40
48589;DHT22;34369;51.174;6.738;2023-03-14T14:27:50;8.70;56.20
48589;DHT22;34369;51.174;6.738;2023-03-14T14:30:31;8.60;55.70
48589;DHT22;34369;51.174;6.738;2023-03-14T14:33:18;8.50;55.30
48589;DHT22;34369;51.174;6.738;2023-03-14T14:35:56;8.40;55.40
48589;DHT22;34369;51.174;6.738;2023-03-14T14:38:32;8.40;56.00
48589;DHT22;34369;51.174;6.738;2023-03-14T14:41:11;8.30;56.20
48589;DHT22;34369;51.174;6.738;2023-03-14T14:43:44;8.30;56.10
48589;DHT22;34369;51.174;6.738;2023-03-14T14:46:19;8.30;56.10
48589;DHT22;34369;51.174;6.738;2023-03-14T14:48:55;8.30;55.80
48589;DHT22;34369;51.174;6.738;2023-03-14T14:51:33;8.30;55.60
48589;DHT22;34369;51.174;6.738;2023-03-14T14:54:14;8.30;55.50
48589;DHT22;34369;51.174;6.738;2023-03-14T14:56:50;8.30;55.90
48589;DHT22;34369;51.174;6.738;2023-03-14T14:59:42;8.30;55.90
48589;DHT22;34369;51.174;6.738;2023-03-14T15:02:30;8.30;53.30
48589;DHT22;34369;51.174;6.738;2023-03-14T15:05:07;8.30;53.30
48589;DHT22;34369;51.174;6.738;2023-03-14T15:07:47;8.30;53.50
48589;DHT22;34369;51.174;6.738;2023-03-14T15:10:23;8.30;52.50
48589;DHT22;34369;51.174;6.738;2023-03-14T15:13:04;8.30;52.40
48589;DHT22;34369;51.174;6.738;2023-03-14T15:15:43;8.30;52.10
48589;DHT22;34369;51.174;6.738;2023-03-14T15:18:47;8.30;52.30
48589;DHT22;34369;51.174;6.738;2023-03-14T15:21:29;8.20;50.90
48589;DHT22;34369;51.174;6.738;2023-03-14T15:24:01;8.20;51.40
48589;DHT22;34369;51.174;6.738;2023-03-14T15:26:36;8.20;50.80
48589;DHT22;34369;51.174;6.738;2023-03-14T15:29:10;8.10;50.60
48589;DHT22;34369;51.174;6.738;2023-03-14T15:31:43;8.10;50.20
48589;DHT22;34369;51.174;6.738;2023-03-14T15:34:18;8.10;49.40
48589;DHT22;34369;51.174;6.738;2023-03-14T15:36:51;8.10;49.40
48589;DHT22;34369;51.174;6.738;2023-03-14T15:39:23;8.00;49.80
48589;DHT22;34369;51.174;6.738;2023-03-14T15:41:55;8.00;49.80
48589;DHT22;34369;51.174;6.738;2023-03-14T15:44:29;8.00;49.40
48589;DHT22;34369;51.174;6.738;2023-03-14T15:47:01;7.90;49.20
48589;DHT22;34369;51.174;6.738;2023-03-14T15:49:37;7.90;49.10
48589;DHT22;34369;51.174;6.738;2023-03-14T15:52:10;7.80;48.40
48589;DHT22;34369;51.174;6.738;2023-03-14T15:54:43;7.80;48.80
48589;DHT22;34369;51.174;6.738;2023-03-14T15:57:15;7.70;48.70
48589;DHT22;34369;51.174;6.738;2023-03-14T15:59:47;7.70;48.90
48589;DHT22;34369;51.174;6.738;2023-03-14T16:02:20;7.70;48.00
48589;DHT22;34369;51.174;6.738;2023-03-14T16:04:54;7.60;48.10
48589;DHT22;34369;51.174;6.738;2023-03-14T16:07:27;7.60;48.30
48589;DHT22;34369;51.174;6.738;2023-03-14T16:10:01;7.50;48.00
48589;DHT22;34369;51.174;6.738;2023-03-14T16:12:34;7.50;47.60
48589;DHT22;34369;51.174;6.738;2023-03-14T16:15:09;7.50;48.00
48589;DHT22;34369;51.174;6.738;2023-03-14T16:17:42;7.50;47.30
48589;DHT22;34369;51.174;6.738;2023-03-14T16:20:17;7.50;47.80
48589;DHT22;34369;51.174;6.738;2023-03-14T16:23:04;7.40;47.90
48589;DHT22;34369;51.174;6.738;2023-03-14T16:25:50;7.30;47.20
48589;DHT22;34369;51.174;6.738;2023-03-14T16:28:24;7.30;47.60
48589;DHT22;34369;51.174;6.738;2023-03-14T16:31:01;7.30;47.70
48589;DHT22;34369;51.174;6.738;2023-03-14T16:33:36;7.20;47.90
48589;DHT22;34369;51.174;6.738;2023-03-14T16:36:13;7.20;47.20
48589;DHT22;34369;51.174;6.738;2023-03-14T16:38:45;7.10;46.80
48589;DHT22;34369;51.174;6.738;2023-03-14T16:41:19;7.10;47.10
48589;DHT22;34369;51.174;6.738;2023-03-14T16:43:52;7.10;46.70
48589;DHT22;34369;51.174;6.738;2023-03-14T16:46:27;7.00;47.10
48589;DHT22;34369;51.174;6.738;2023-03-14T16:49:04;7.00;47.10
48589;DHT22;34369;51.174;6.738;2023-03-14T16:51:39;7.00;47.30
48589;DHT22;34369;51.174;6.738;2023-03-14T16:54:12;6.90;47.00
48589;DHT22;34369;51.174;6.738;2023-03-14T16:56:45;6.90;46.90
48589;DHT22;34369;51.174;6.738;2023-03-14T16:59:19;6.90;47.30
48589;DHT22;34369;51.174;6.738;2023-03-14T17:01:53;6.80;47.30
48589;DHT22;34369;51.174;6.738;2023-03-14T17:04:27;6.70;47.30
48589;DHT22;34369;51.174;6.738;2023-03-14T17:07:01;6.70;47.30
48589;DHT22;34369;51.174;6.738;2023-03-14T17:09:34;6.70;47.20